Minneapolis, Minnesota
Traffic Map
Current Weather Conditions
Minneapolis, Minnesota
Overcast
Overcast
50°
Feels Like: 50°
Wind Chill: 50° Ceiling: 1900
Heat Index: 50° Visibility: 10mi
Dew Point: 45° Wind: 12mph
Humidity: 83% Direction: 360° (N)
Pressure: 29.92in Gusts: 0mph
Raw Report DataKMSP 280553Z 36010KT 10SM OVC019 10/07 A2992 RMK AO2 SLP133 60000 T01000072 10100 20100 401560094 53013
Traffic Incident Summary
Active as of:
Severity:
Category:
InformationThere was an issue retrieving the traffic information for this location. Please try a different location or try again shortly.
Advertisements
Track Severe Weather on mobile